Time;durP1;ratioP1;P1;durP2;ratioP2;P2;SDS_P1;SDS_P2;PMS_P1;PMS_P2;Temp;Humidity;BMP_temperature;BMP_pressure;BME280_temperature;BME280_humidity;BME280_pressure;Samples;Min_cycle;Max_cycle;Signal;HPM_P1;HPM_P2
2022/12/17 13:07:19;;;;;;;;;;;4.50;99.90;;;;;;5012138;28;20572;-82
2022/12/17 13:09:47;;;;;;;;;;;4.60;99.90;;;;;;5012301;28;19910;-82
2022/12/17 13:12:19;;;;;;;;;;;4.60;99.90;;;;;;5012809;28;19915;-82
2022/12/17 13:14:45;;;;;;;;;;;4.80;99.90;;;;;;5013005;28;19921;-81
2022/12/17 13:17:13;;;;;;;;;;;5.00;99.90;;;;;;5010978;28;19905;-81
2022/12/17 13:19:43;;;;;;;;;;;5.00;99.90;;;;;;5012911;28;19960;-81
2022/12/17 13:22:14;;;;;;;;;;;5.10;99.90;;;;;;5012784;28;19953;-82
2022/12/17 13:24:47;;;;;;;;;;;5.20;99.90;;;;;;5012590;28;20000;-81
2022/12/17 13:27:31;;;;;;;;;;;5.20;99.90;;;;;;5012177;28;20006;-82
2022/12/17 13:29:58;;;;;;;;;;;5.20;99.90;;;;;;5012306;28;19948;-82
2022/12/17 13:32:34;;;;;;;;;;;5.20;99.90;;;;;;5012808;28;19909;-82
2022/12/17 13:35:23;;;;;;;;;;;5.20;99.90;;;;;;5012070;28;19955;-81
2022/12/17 13:37:49;;;;;;;;;;;5.20;99.90;;;;;;5006760;28;19925;-81
2022/12/17 13:40:17;;;;;;;;;;;5.30;99.90;;;;;;5011801;28;20339;-81
2022/12/17 13:42:44;;;;;;;;;;;5.20;99.90;;;;;;5012469;28;19961;-80
2022/12/17 13:45:16;;;;;;;;;;;5.30;99.90;;;;;;5011905;28;20375;-80
2022/12/17 13:47:42;;;;;;;;;;;5.30;99.90;;;;;;5011998;28;20285;-81
2022/12/17 13:50:21;;;;;;;;;;;5.30;99.90;;;;;;5011070;28;20048;-81
2022/12/17 13:52:47;;;;;;;;;;;5.20;99.90;;;;;;5013204;28;19910;-80
2022/12/17 13:55:20;;;;;;;;;;;5.20;99.90;;;;;;5014449;28;20354;-81
2022/12/17 13:57:46;;;;;;;;;;;5.10;99.90;;;;;;5014504;28;20367;-81
2022/12/17 14:00:26;;;;;;;;;;;5.20;99.90;;;;;;5014548;28;19977;-81
2022/12/17 14:02:52;;;;;;;;;;;5.20;99.90;;;;;;5014402;28;19944;-85
2022/12/17 14:05:37;;;;;;;;;;;5.20;99.90;;;;;;5014673;28;19972;-80
2022/12/17 14:08:04;;;;;;;;;;;5.20;99.90;;;;;;5014616;28;19921;-81
2022/12/17 14:10:30;;;;;;;;;;;5.20;99.90;;;;;;5014321;28;20008;-81
2022/12/17 14:13:22;;;;;;;;;;;5.20;99.90;;;;;;5013783;28;20018;-81
2022/12/17 14:15:48;;;;;;;;;;;5.20;99.90;;;;;;5013055;28;19987;-81
2022/12/17 14:18:17;;;;;;;;;;;5.20;99.90;;;;;;5014717;28;19909;-81
2022/12/17 14:20:43;;;;;;;;;;;5.10;99.90;;;;;;5015037;28;19909;-81
2022/12/17 14:23:14;;;;;;;;;;;5.00;99.90;;;;;;5014676;28;20016;-81
2022/12/17 14:25:42;;;;;;;;;;;5.00;99.90;;;;;;5014636;28;19917;-81
2022/12/17 14:28:26;;;;;;;;;;;4.90;99.90;;;;;;5014557;28;20346;-81
2022/12/17 14:31:01;;;;;;;;;;;4.90;99.90;;;;;;5015136;28;20085;-81
2022/12/17 14:33:28;;;;;;;;;;;4.80;99.90;;;;;;5014887;28;19916;-81
2022/12/17 14:35:55;;;;;;;;;;;4.90;99.90;;;;;;5013729;28;19929;-83
2022/12/17 14:38:20;;;;;;;;;;;4.80;99.90;;;;;;5013657;28;19913;-80
2022/12/17 14:40:46;;;;;;;;;;;4.70;99.90;;;;;;5014048;28;20271;-80
2022/12/17 14:43:12;;;;;;;;;;;4.80;99.90;;;;;;5013057;28;19971;-81
2022/12/17 14:46:19;;;;;;;;;;;4.70;99.90;;;;;;5014202;28;19921;-81
2022/12/17 14:48:59;;;;;;;;;;;4.70;99.90;;;;;;5013311;28;19985;-80
2022/12/17 14:51:22;;;;;;;;;;;4.60;99.90;;;;;;5012503;28;19916;-80
2022/12/17 14:53:48;;;;;;;;;;;4.50;99.90;;;;;;5012306;28;19960;-81
2022/12/17 14:56:21;;;;;;;;;;;4.50;99.90;;;;;;5011533;28;19990;-81
2022/12/17 14:58:46;;;;;;;;;;;4.40;99.90;;;;;;5013706;28;19910;-82
2022/12/17 15:01:12;;;;;;;;;;;4.40;99.90;;;;;;5012970;28;19910;-81
2022/12/17 15:03:42;;;;;;;;;;;4.40;99.90;;;;;;5012301;28;19920;-81
2022/12/17 15:06:09;;;;;;;;;;;4.40;99.90;;;;;;5012958;28;19964;-81
2022/12/17 15:08:36;;;;;;;;;;;4.40;99.90;;;;;;5011948;28;20215;-80
2022/12/17 15:11:02;;;;;;;;;;;4.40;99.90;;;;;;5012383;28;20113;-80
2022/12/17 15:13:27;;;;;;;;;;;4.30;99.90;;;;;;5011827;28;20210;-80
2022/12/17 15:15:53;;;;;;;;;;;4.20;99.90;;;;;;5012825;28;19910;-80
2022/12/17 15:18:18;;;;;;;;;;;4.20;99.90;;;;;;5012333;28;19909;-79
2022/12/17 15:20:44;;;;;;;;;;;4.10;99.90;;;;;;5012517;28;19913;-80
2022/12/17 15:23:17;;;;;;;;;;;4.00;99.90;;;;;;5011786;28;19932;-80
2022/12/17 15:25:43;;;;;;;;;;;4.00;99.90;;;;;;5012427;28;19920;-80
2022/12/17 15:28:09;;;;;;;;;;;3.90;99.90;;;;;;5010989;28;20283;-80
2022/12/17 15:30:35;;;;;;;;;;;3.80;99.90;;;;;;5012717;28;19913;-81
2022/12/17 15:33:02;;;;;;;;;;;3.70;99.90;;;;;;5012199;28;19909;-82
2022/12/17 15:35:28;;;;;;;;;;;3.70;99.90;;;;;;5013373;28;19910;-82
2022/12/17 15:37:53;;;;;;;;;;;3.70;99.90;;;;;;5012908;28;19928;-81
2022/12/17 15:40:19;;;;;;;;;;;3.60;99.90;;;;;;5011756;28;19921;-81
2022/12/17 15:45:43;;;;;;;;;;;3.50;99.90;;;;;;5007064;28;19921;-80
2022/12/17 15:48:10;;;;;;;;;;;3.40;99.90;;;;;;5011897;28;20242;-80
2022/12/17 15:50:36;;;;;;;;;;;3.40;99.90;;;;;;5012265;28;19914;-79
2022/12/17 15:53:01;;;;;;;;;;;3.30;99.90;;;;;;5011918;28;20404;-81
2022/12/17 15:55:27;;;;;;;;;;;3.30;99.90;;;;;;5011948;28;19975;-80
2022/12/17 15:57:53;;;;;;;;;;;3.30;99.90;;;;;;5012131;28;19921;-80
2022/12/17 16:00:19;;;;;;;;;;;3.30;99.90;;;;;;5011352;28;19924;-80
2022/12/17 16:02:45;;;;;;;;;;;3.30;99.90;;;;;;5011832;28;19914;-80
2022/12/17 16:05:11;;;;;;;;;;;3.30;99.90;;;;;;5012707;28;19968;-80
2022/12/17 16:07:37;;;;;;;;;;;3.30;99.90;;;;;;5012004;28;19957;-79
2022/12/17 16:10:03;;;;;;;;;;;3.40;99.90;;;;;;5024195;28;19914;-86
2022/12/17 16:12:28;;;;;;;;;;;3.40;99.90;;;;;;5033877;28;19909;-80
2022/12/17 16:14:54;;;;;;;;;;;3.50;99.90;;;;;;5034714;28;19901;-79
2022/12/17 16:17:20;;;;;;;;;;;3.50;99.90;;;;;;5035134;28;19940;-81
2022/12/17 16:19:45;;;;;;;;;;;3.50;99.90;;;;;;5036317;28;19901;-80
2022/12/17 16:22:11;;;;;;;;;;;3.40;99.90;;;;;;5032985;28;19913;-80
2022/12/17 16:24:36;;;;;;;;;;;3.40;99.90;;;;;;5018705;28;20008;-80
2022/12/17 16:27:02;;;;;;;;;;;3.30;99.90;;;;;;5022464;28;19924;-80
2022/12/17 16:29:28;;;;;;;;;;;3.30;99.90;;;;;;5018291;28;19910;-80
2022/12/17 16:31:53;;;;;;;;;;;3.30;99.90;;;;;;5016157;28;20394;-80
2022/12/17 16:34:19;;;;;;;;;;;3.20;99.90;;;;;;5016289;28;20189;-79
2022/12/17 16:36:44;;;;;;;;;;;3.20;99.90;;;;;;5014791;28;19929;-80
2022/12/17 16:39:13;;;;;;;;;;;3.10;99.90;;;;;;5014726;28;20432;-80
2022/12/17 16:41:39;;;;;;;;;;;3.00;99.90;;;;;;5012757;28;19917;-79
2022/12/17 16:44:05;;;;;;;;;;;3.00;99.90;;;;;;5011896;28;19913;-79
2022/12/17 16:46:34;;;;;;;;;;;3.00;99.90;;;;;;5011997;28;19914;-80
2022/12/17 16:49:04;;;;;;;;;;;2.90;99.90;;;;;;5011902;28;19978;-80
2022/12/17 16:51:29;;;;;;;;;;;2.80;99.90;;;;;;5012417;28;20393;-79
2022/12/17 16:53:55;;;;;;;;;;;2.70;99.90;;;;;;5012044;28;19910;-80
2022/12/17 16:56:22;;;;;;;;;;;2.60;99.90;;;;;;5012247;28;19918;-80
2022/12/17 16:58:48;;;;;;;;;;;2.50;99.90;;;;;;5012017;28;19909;-79
2022/12/17 17:01:18;;;;;;;;;;;2.40;99.90;;;;;;5011632;28;20255;-79
2022/12/17 17:03:43;;;;;;;;;;;2.40;99.90;;;;;;5012073;28;20013;-79
2022/12/17 17:06:09;;;;;;;;;;;2.30;99.90;;;;;;5011761;28;20263;-79
2022/12/17 17:08:36;;;;;;;;;;;2.30;99.90;;;;;;5012067;28;19918;-78
2022/12/17 17:11:21;;;;;;;;;;;2.20;99.90;;;;;;5012969;28;19910;-79
2022/12/17 17:13:47;;;;;;;;;;;2.20;99.90;;;;;;5013523;28;19909;-79
2022/12/17 17:16:12;;;;;;;;;;;2.10;99.90;;;;;;5013790;28;19920;-78
2022/12/17 17:18:38;;;;;;;;;;;2.10;99.90;;;;;;5013823;28;19910;-78
2022/12/17 17:21:12;;;;;;;;;;;2.00;99.90;;;;;;5013017;28;19936;-78
2022/12/17 17:23:38;;;;;;;;;;;2.00;99.90;;;;;;5012664;28;19913;-78
2022/12/17 17:26:04;;;;;;;;;;;1.90;99.90;;;;;;5012503;28;19921;-81
2022/12/17 17:28:30;;;;;;;;;;;1.90;99.90;;;;;;5016146;28;19914;-78
2022/12/17 17:31:03;;;;;;;;;;;1.90;99.90;;;;;;5016302;28;20294;-83
2022/12/17 17:33:29;;;;;;;;;;;1.80;99.90;;;;;;5016388;28;19909;-78
2022/12/17 17:36:01;;;;;;;;;;;1.80;99.90;;;;;;5016613;28;19968;-78
2022/12/17 17:38:26;;;;;;;;;;;1.80;99.90;;;;;;5016670;28;20243;-78
2022/12/17 17:40:55;;;;;;;;;;;1.80;99.90;;;;;;5016752;28;19937;-78
2022/12/17 17:43:20;;;;;;;;;;;1.70;99.90;;;;;;5016131;28;20012;-78
2022/12/17 17:45:47;;;;;;;;;;;1.70;99.90;;;;;;5016544;28;19956;-78
2022/12/17 17:48:12;;;;;;;;;;;1.60;99.90;;;;;;5015662;28;19913;-78
2022/12/17 17:50:38;;;;;;;;;;;1.60;99.90;;;;;;5014379;28;19921;-77
2022/12/17 17:53:03;;;;;;;;;;;1.60;99.90;;;;;;5015305;28;19953;-78
2022/12/17 17:55:29;;;;;;;;;;;1.60;99.90;;;;;;5015589;28;20304;-78
2022/12/17 17:57:54;;;;;;;;;;;1.50;99.90;;;;;;5015133;28;19917;-78
2022/12/17 18:00:20;;;;;;;;;;;1.50;99.90;;;;;;5013671;28;19910;-77
2022/12/17 18:02:45;;;;;;;;;;;1.40;99.90;;;;;;5015520;28;20414;-78
2022/12/17 18:05:11;;;;;;;;;;;1.40;99.90;;;;;;5015059;28;19948;-79
2022/12/17 18:07:37;;;;;;;;;;;1.30;99.90;;;;;;5015182;28;19916;-78
2022/12/17 18:10:02;;;;;;;;;;;1.30;99.90;;;;;;5014813;28;19952;-78
2022/12/17 18:15:12;;;;;;;;;;;1.30;99.90;;;;;;5014695;28;20009;-78
2022/12/17 18:17:38;;;;;;;;;;;1.20;99.90;;;;;;5017003;28;19945;-77
2022/12/17 18:20:03;;;;;;;;;;;1.20;99.90;;;;;;5015400;28;19910;-76
2022/12/17 18:22:29;;;;;;;;;;;1.20;99.90;;;;;;5016407;28;19909;-78
2022/12/17 18:24:55;;;;;;;;;;;1.20;99.90;;;;;;5015206;28;20012;-78
2022/12/17 18:27:20;;;;;;;;;;;1.10;99.90;;;;;;5012711;28;20485;-76
2022/12/17 18:29:46;;;;;;;;;;;1.10;99.90;;;;;;5014463;28;19917;-76
2022/12/17 18:32:11;;;;;;;;;;;1.10;99.90;;;;;;5014231;28;19913;-77
2022/12/17 18:34:37;;;;;;;;;;;1.00;99.90;;;;;;5013417;28;19960;-76
2022/12/17 18:37:04;;;;;;;;;;;1.00;99.90;;;;;;5014186;28;19965;-81
2022/12/17 18:39:29;;;;;;;;;;;1.00;99.90;;;;;;5013321;28;19936;-77
2022/12/17 18:44:40;;;;;;;;;;;0.90;99.90;;;;;;5014021;28;19967;-76
2022/12/17 18:47:06;;;;;;;;;;;0.90;99.90;;;;;;5013722;28;19988;-77
2022/12/17 18:49:32;;;;;;;;;;;0.90;99.90;;;;;;5013985;28;19913;-76
2022/12/17 18:51:57;;;;;;;;;;;0.80;99.90;;;;;;5014619;28;19916;-76
2022/12/17 18:54:27;;;;;;;;;;;0.80;99.90;;;;;;5012892;28;20119;-76
2022/12/17 18:56:54;;;;;;;;;;;0.80;99.90;;;;;;5014558;28;19956;-76
2022/12/17 18:59:20;;;;;;;;;;;0.70;99.90;;;;;;5014049;28;19909;-76
2022/12/17 19:01:46;;;;;;;;;;;0.70;99.90;;;;;;5014372;28;19916;-76
2022/12/17 19:04:13;;;;;;;;;;;0.70;99.90;;;;;;5013632;28;19971;-76
2022/12/17 19:06:40;;;;;;;;;;;0.70;99.90;;;;;;5014272;28;20375;-76
2022/12/17 19:09:06;;;;;;;;;;;0.70;99.90;;;;;;5014391;28;19910;-77
2022/12/17 19:11:32;;;;;;;;;;;0.70;99.90;;;;;;5014610;28;19979;-75
2022/12/17 19:13:58;;;;;;;;;;;0.70;99.90;;;;;;5014967;28;19956;-76
2022/12/17 19:16:25;;;;;;;;;;;0.70;99.90;;;;;;5014154;28;20594;-76
2022/12/17 19:18:51;;;;;;;;;;;0.70;99.90;;;;;;5014793;28;19910;-76
2022/12/17 19:21:17;;;;;;;;;;;0.70;99.90;;;;;;5013599;28;19931;-77
2022/12/17 19:23:43;;;;;;;;;;;0.70;99.90;;;;;;5013652;28;19914;-77
2022/12/17 19:26:10;;;;;;;;;;;0.60;99.90;;;;;;5013448;28;19920;-78
2022/12/17 19:28:38;;;;;;;;;;;0.60;99.90;;;;;;5012090;28;20017;-77
2022/12/17 19:31:03;;;;;;;;;;;0.60;99.90;;;;;;5013487;28;19976;-80
2022/12/17 19:33:29;;;;;;;;;;;0.50;99.90;;;;;;5013412;28;19939;-77
2022/12/17 19:35:58;;;;;;;;;;;0.60;99.90;;;;;;5013419;28;20403;-78
2022/12/17 19:38:24;;;;;;;;;;;0.50;99.90;;;;;;5013085;28;19909;-77
2022/12/17 19:40:51;;;;;;;;;;;0.50;99.90;;;;;;5013843;28;19909;-77
2022/12/17 19:43:16;;;;;;;;;;;0.50;99.90;;;;;;5012930;28;19918;-78
2022/12/17 19:45:42;;;;;;;;;;;0.50;99.90;;;;;;5013296;28;19965;-78
2022/12/17 19:48:07;;;;;;;;;;;0.50;99.90;;;;;;5013006;28;19909;-80
2022/12/17 19:50:33;;;;;;;;;;;0.50;99.90;;;;;;5013054;28;20003;-78
2022/12/17 19:52:59;;;;;;;;;;;0.50;99.90;;;;;;5013270;28;19921;-78
2022/12/17 19:55:24;;;;;;;;;;;0.40;99.90;;;;;;5013615;28;20075;-78
2022/12/17 19:57:50;;;;;;;;;;;0.50;99.90;;;;;;5014087;28;19910;-77
2022/12/17 20:00:15;;;;;;;;;;;0.40;99.90;;;;;;5013776;28;19909;-77
2022/12/17 20:02:41;;;;;;;;;;;0.40;99.90;;;;;;5013937;28;19939;-77
2022/12/17 20:05:07;;;;;;;;;;;0.30;99.90;;;;;;5013333;28;19913;-82
2022/12/17 20:07:32;;;;;;;;;;;0.30;99.90;;;;;;5012473;28;20286;-77
2022/12/17 20:09:58;;;;;;;;;;;0.40;99.90;;;;;;5012972;28;19916;-78
2022/12/17 20:12:23;;;;;;;;;;;0.30;99.90;;;;;;5012365;28;20000;-77
2022/12/17 20:14:49;;;;;;;;;;;0.40;99.90;;;;;;5013435;28;19920;-77
2022/12/17 20:17:14;;;;;;;;;;;0.30;99.90;;;;;;5013033;28;20199;-79
2022/12/17 20:19:41;;;;;;;;;;;0.30;99.90;;;;;;5012921;28;20000;-78
2022/12/17 20:22:06;;;;;;;;;;;0.30;99.90;;;;;;5013080;28;19910;-77
2022/12/17 20:24:32;;;;;;;;;;;0.30;99.90;;;;;;5011975;28;20255;-77
2022/12/17 20:26:57;;;;;;;;;;;0.30;99.90;;;;;;5012704;28;19914;-77
2022/12/17 20:29:23;;;;;;;;;;;0.30;99.90;;;;;;5012233;28;19909;-77
2022/12/17 20:31:49;;;;;;;;;;;0.30;99.90;;;;;;5012875;28;19976;-76
2022/12/17 20:34:16;;;;;;;;;;;0.30;99.90;;;;;;5011990;28;20359;-77
2022/12/17 20:36:42;;;;;;;;;;;0.30;99.90;;;;;;5012784;28;19922;-76
2022/12/17 20:39:08;;;;;;;;;;;0.30;99.90;;;;;;5012490;28;20263;-80
2022/12/17 20:41:35;;;;;;;;;;;0.30;99.90;;;;;;5011019;28;19910;-77
2022/12/17 20:44:01;;;;;;;;;;;0.30;99.90;;;;;;5010858;28;19913;-78
2022/12/17 20:46:27;;;;;;;;;;;0.30;99.90;;;;;;5012118;28;19917;-77
2022/12/17 20:48:52;;;;;;;;;;;0.30;99.90;;;;;;5011125;28;19909;-77
2022/12/17 20:51:19;;;;;;;;;;;0.20;99.90;;;;;;5012284;28;19949;-77
2022/12/17 20:53:46;;;;;;;;;;;0.30;99.90;;;;;;5012644;28;19916;-77
2022/12/17 20:56:16;;;;;;;;;;;0.20;99.90;;;;;;5011726;28;20260;-81
2022/12/17 20:58:41;;;;;;;;;;;0.30;99.90;;;;;;5012499;28;19909;-78
2022/12/17 21:01:07;;;;;;;;;;;0.30;99.90;;;;;;5012550;28;19917;-77
2022/12/17 21:03:33;;;;;;;;;;;0.30;99.90;;;;;;5015354;28;19921;-77
2022/12/17 21:06:05;;;;;;;;;;;0.30;99.90;;;;;;5016113;28;19914;-77
2022/12/17 21:08:30;;;;;;;;;;;0.30;99.90;;;;;;5015838;28;20458;-77
2022/12/17 21:10:56;;;;;;;;;;;0.30;99.90;;;;;;5015995;28;19956;-77
2022/12/17 21:13:27;;;;;;;;;;;0.30;99.90;;;;;;5015850;28;19914;-77
2022/12/17 21:15:53;;;;;;;;;;;0.30;99.90;;;;;;5016357;28;19909;-77
2022/12/17 21:18:19;;;;;;;;;;;0.40;99.90;;;;;;5015659;28;19916;-77
2022/12/17 21:20:53;;;;;;;;;;;0.40;99.90;;;;;;5016188;28;19909;-77
2022/12/17 21:23:18;;;;;;;;;;;0.40;99.90;;;;;;5015984;28;19995;-77
2022/12/17 21:25:44;;;;;;;;;;;0.40;99.90;;;;;;5015797;28;19968;-77
2022/12/17 21:28:09;;;;;;;;;;;0.40;99.90;;;;;;5015943;28;19910;-78
2022/12/17 21:30:36;;;;;;;;;;;0.40;99.90;;;;;;5015429;28;19945;-77
2022/12/17 21:33:01;;;;;;;;;;;0.40;99.90;;;;;;5016126;28;20026;-76
2022/12/17 21:35:27;;;;;;;;;;;0.40;99.90;;;;;;5015540;28;20083;-77
2022/12/17 21:37:52;;;;;;;;;;;0.50;99.90;;;;;;5015613;28;20326;-76
2022/12/17 21:40:18;;;;;;;;;;;0.50;99.90;;;;;;5015305;28;19909;-77
2022/12/17 21:43:02;;;;;;;;;;;0.50;99.90;;;;;;5015896;28;19920;-78
2022/12/17 21:45:38;;;;;;;;;;;0.50;99.90;;;;;;5015111;28;20425;-78
2022/12/17 21:48:07;;;;;;;;;;;0.60;99.90;;;;;;5015580;28;19909;-78
2022/12/17 21:50:33;;;;;;;;;;;0.60;99.90;;;;;;5015068;28;19910;-78
2022/12/17 21:52:59;;;;;;;;;;;0.60;99.90;;;;;;5015383;28;19980;-77
2022/12/17 21:55:25;;;;;;;;;;;0.60;99.90;;;;;;5015076;28;19913;-77
2022/12/17 21:57:50;;;;;;;;;;;0.60;99.90;;;;;;5015164;28;19917;-78
2022/12/17 22:00:16;;;;;;;;;;;0.60;99.90;;;;;;5013141;28;20308;-81
2022/12/17 22:02:42;;;;;;;;;;;0.60;99.90;;;;;;5013208;28;19967;-79
2022/12/17 22:05:07;;;;;;;;;;;0.60;99.90;;;;;;5014871;28;19967;-78
2022/12/17 22:07:33;;;;;;;;;;;0.60;99.90;;;;;;5014582;28;19909;-78
2022/12/17 22:09:58;;;;;;;;;;;0.60;99.90;;;;;;5014847;28;20359;-78
2022/12/17 22:15:09;;;;;;;;;;;0.70;99.90;;;;;;5014527;28;19917;-78
2022/12/17 22:17:39;;;;;;;;;;;0.70;99.90;;;;;;5014191;28;19913;-79
2022/12/17 22:20:04;;;;;;;;;;;0.70;99.90;;;;;;5014420;28;20371;-78
2022/12/17 22:22:30;;;;;;;;;;;0.70;99.90;;;;;;5014073;28;19916;-79
2022/12/17 22:24:56;;;;;;;;;;;0.70;99.90;;;;;;5014455;28;19917;-79
2022/12/17 22:27:21;;;;;;;;;;;0.70;99.90;;;;;;5014018;28;19913;-79
2022/12/17 22:35:15;;;;;;;;;;;0.60;99.90;;;;;;5014405;28;20047;-81
2022/12/17 22:37:41;;;;;;;;;;;0.60;99.90;;;;;;5014442;28;20017;-78
2022/12/17 22:40:07;;;;;;;;;;;0.60;99.90;;;;;;5014431;28;19920;-79
2022/12/17 22:45:17;;;;;;;;;;;0.60;99.90;;;;;;5013764;28;19989;-81
2022/12/17 22:47:42;;;;;;;;;;;0.60;99.90;;;;;;5013872;28;19972;-79
2022/12/17 22:50:08;;;;;;;;;;;0.60;99.90;;;;;;5014019;28;20367;-78
2022/12/17 22:52:34;;;;;;;;;;;0.60;99.90;;;;;;5013343;28;19909;-79
2022/12/17 22:54:59;;;;;;;;;;;0.60;99.90;;;;;;5013873;28;19916;-80
2022/12/17 22:57:25;;;;;;;;;;;0.60;99.90;;;;;;5013654;28;19917;-80
2022/12/17 22:59:50;;;;;;;;;;;0.60;99.90;;;;;;5014596;28;20084;-79
2022/12/17 23:02:16;;;;;;;;;;;0.60;99.90;;;;;;5012606;28;19910;-82
2022/12/17 23:04:42;;;;;;;;;;;0.60;99.90;;;;;;5013723;28;19964;-79
2022/12/17 23:07:07;;;;;;;;;;;0.60;99.90;;;;;;5013693;28;19920;-79
2022/12/17 23:09:33;;;;;;;;;;;0.50;99.90;;;;;;5013653;28;19920;-79
2022/12/17 23:12:49;;;;;;;;;;;0.50;99.90;;;;;;5013332;28;19910;-79
2022/12/17 23:14:44;;;;;;;;;;;0.50;99.90;;;;;;5013401;28;19963;-79
2022/12/17 23:17:09;;;;;;;;;;;0.50;99.90;;;;;;5013870;28;20351;-79
2022/12/17 23:19:35;;;;;;;;;;;0.40;99.90;;;;;;5012870;28;19913;-76
2022/12/17 23:22:00;;;;;;;;;;;0.40;99.90;;;;;;5013619;28;19909;-76
2022/12/17 23:24:26;;;;;;;;;;;0.40;99.90;;;;;;5010709;28;19972;-77
2022/12/17 23:26:51;;;;;;;;;;;0.40;99.90;;;;;;5013323;28;19957;-77
2022/12/17 23:29:17;;;;;;;;;;;0.40;99.90;;;;;;5012743;28;19989;-80
2022/12/17 23:31:42;;;;;;;;;;;0.40;99.90;;;;;;5012077;28;19910;-78
2022/12/17 23:34:08;;;;;;;;;;;0.40;99.90;;;;;;5010672;28;20245;-78
2022/12/17 23:36:34;;;;;;;;;;;0.40;99.90;;;;;;5011767;28;19922;-78
2022/12/17 23:38:59;;;;;;;;;;;0.30;99.90;;;;;;5012141;28;20255;-76
2022/12/17 23:41:27;;;;;;;;;;;0.30;99.90;;;;;;5011498;28;20016;-76
2022/12/17 23:43:53;;;;;;;;;;;0.40;99.90;;;;;;5012241;28;19919;-76
2022/12/17 23:46:19;;;;;;;;;;;0.40;99.90;;;;;;5010735;28;20302;-80
2022/12/17 23:48:45;;;;;;;;;;;0.40;99.90;;;;;;5013049;28;19910;-76
2022/12/17 23:51:12;;;;;;;;;;;0.40;99.90;;;;;;5012682;28;19917;-77
2022/12/17 23:53:37;;;;;;;;;;;0.40;99.90;;;;;;5012444;28;19917;-76
2022/12/17 23:56:05;;;;;;;;;;;0.30;99.90;;;;;;5012723;28;19909;-77
2022/12/17 23:58:30;;;;;;;;;;;0.30;99.90;;;;;;5011902;28;20373;-77
